Terminal Aerodrome Forecast
Issued by NWS

Home | Current Version | Previous Version | Text Only | Print | Product List | Glossary On
Versions: 1 2 3 4 5 6 7 8 9 10 11 12
000
FTUS44 KOUN 252342
TAFLAW
TAF
KLAW 252342Z 2600/2624 35015G20KT P6SM BKN110
     FM260500 01015KT P6SM BKN030
     FM260700 02015KT P6SM OVC010
     FM261200 01020G25KT P6SM OVC007 PROB30 2612/2615 P6SM -SHRA
      OVC007
     FM261800 36018KT P6SM OVC030
     FM262300 34004KT P6SM SKC=

USA.gov is the U.S. government's official web portal to all federal, state and local government web resources and services.